createdAt,value
2022-10-11T00:00:06.078Z,9.10
2022-10-11T00:00:18.190Z,9.25
2022-10-11T00:00:32.484Z,8.73
2022-10-11T00:00:44.391Z,9.55
2022-10-11T00:00:56.443Z,10.38
2022-10-11T00:01:08.462Z,10.23
2022-10-11T00:01:20.660Z,9.68
2022-10-11T00:01:32.823Z,8.20
2022-10-11T00:01:44.803Z,8.38
2022-10-11T00:01:56.772Z,8.23
2022-10-11T00:02:08.680Z,7.82
2022-10-11T00:02:20.671Z,6.00
2022-10-11T00:02:32.616Z,6.25
2022-10-11T00:02:44.605Z,6.40
2022-10-11T00:02:57.414Z,6.82
2022-10-11T00:03:09.638Z,8.25
2022-10-11T00:03:21.924Z,7.63
2022-10-11T00:03:33.876Z,7.85
2022-10-11T00:03:45.753Z,8.10
2022-10-11T00:03:57.636Z,8.15
2022-10-11T00:04:09.579Z,8.98
2022-10-11T00:04:21.489Z,9.25
2022-10-11T00:04:33.461Z,10.45
2022-10-11T00:04:45.591Z,11.05
2022-10-11T00:04:57.460Z,10.25
2022-10-11T00:05:09.665Z,7.97
2022-10-11T00:05:21.547Z,8.63
2022-10-11T00:05:33.660Z,9.40
2022-10-11T00:05:45.996Z,7.85
2022-10-11T00:05:57.997Z,9.07
2022-10-11T00:06:10.022Z,10.13
2022-10-11T00:06:21.916Z,10.00
2022-10-11T00:06:33.887Z,8.38
2022-10-11T00:06:47.171Z,8.80
2022-10-11T00:06:59.140Z,11.02
2022-10-11T00:07:11.032Z,11.13
2022-10-11T00:07:22.914Z,9.68
2022-10-11T00:07:37.241Z,9.65
2022-10-11T00:07:49.277Z,9.43
2022-10-11T00:08:01.521Z,10.38
2022-10-11T00:08:14.249Z,11.55
2022-10-11T00:08:27.247Z,11.13
2022-10-11T00:08:39.164Z,10.98
2022-10-11T00:08:51.061Z,8.88
2022-10-11T00:09:03.828Z,9.40
2022-10-11T00:09:16.156Z,9.45
2022-10-11T00:09:28.126Z,9.85
2022-10-11T00:09:40.315Z,10.38
2022-10-11T00:09:52.232Z,13.02
2022-10-11T00:10:06.312Z,14.65
2022-10-11T00:10:19.221Z,12.95
2022-10-11T00:10:32.469Z,10.45
2022-10-11T00:10:44.748Z,10.15
2022-10-11T00:10:59.366Z,9.07
2022-10-11T00:11:11.287Z,11.40
2022-10-11T00:11:23.211Z,12.55
2022-10-11T00:11:35.110Z,10.18
2022-10-11T00:11:47.006Z,9.68
2022-10-11T00:11:59.316Z,9.70
2022-10-11T00:12:11.603Z,10.05
2022-10-11T00:12:23.481Z,9.98
2022-10-11T00:12:36.234Z,7.55
2022-10-11T00:12:48.707Z,8.05
2022-10-11T00:13:00.880Z,10.23
2022-10-11T00:13:12.774Z,10.35
2022-10-11T00:13:25.010Z,10.25
2022-10-11T00:13:36.941Z,9.10
2022-10-11T00:13:48.862Z,9.48
2022-10-11T00:14:00.794Z,8.65
2022-10-11T00:14:12.768Z,10.18
2022-10-11T00:14:25.524Z,9.77
2022-10-11T00:14:38.598Z,11.02
2022-10-11T00:14:50.511Z,10.20
2022-10-11T00:15:03.916Z,10.65
2022-10-11T00:15:18.240Z,11.40
2022-10-11T00:15:30.377Z,9.05
2022-10-11T00:15:42.243Z,8.98
2022-10-11T00:15:54.435Z,9.45
2022-10-11T00:16:10.846Z,10.52
2022-10-11T00:16:23.039Z,10.07
2022-10-11T00:16:34.993Z,11.05
2022-10-11T00:16:46.912Z,11.82
2022-10-11T00:16:58.794Z,9.18
2022-10-11T00:17:10.705Z,10.18
2022-10-11T00:17:22.613Z,10.20
2022-10-11T00:17:35.179Z,12.02
2022-10-11T00:17:47.886Z,11.00
2022-10-11T00:18:04.507Z,8.15
2022-10-11T00:18:17.193Z,9.23
2022-10-11T00:18:29.122Z,8.90
2022-10-11T00:18:41.295Z,8.88
2022-10-11T00:18:53.490Z,10.65
2022-10-11T00:19:05.443Z,10.95
2022-10-11T00:19:17.452Z,9.98
2022-10-11T00:19:29.403Z,9.63
2022-10-11T00:19:41.302Z,9.90
2022-10-11T00:19:53.245Z,8.77
2022-10-11T00:20:05.980Z,9.15
2022-10-11T00:20:18.339Z,9.48
2022-10-11T00:20:30.324Z,9.80
2022-10-11T00:20:42.199Z,9.00
2022-10-11T00:21:02.002Z,10.25
2022-10-11T00:21:15.884Z,13.60
2022-10-11T00:21:27.782Z,14.98
2022-10-11T00:21:39.709Z,13.70
2022-10-11T00:21:51.591Z,13.10
2022-10-11T00:22:03.533Z,13.13
2022-10-11T00:22:15.786Z,12.65
2022-10-11T00:22:27.721Z,13.02
2022-10-11T00:22:40.827Z,11.05
2022-10-11T00:22:53.118Z,9.07
2022-10-11T00:23:05.003Z,8.40
2022-10-11T00:23:17.024Z,10.65
2022-10-11T00:23:29.008Z,11.52
2022-10-11T00:23:41.515Z,9.85
2022-10-11T00:23:53.595Z,10.20
2022-10-11T00:24:06.151Z,11.23
2022-10-11T00:24:18.085Z,10.75
2022-10-11T00:24:29.961Z,10.35
2022-10-11T00:24:41.844Z,10.38
2022-10-11T00:24:53.822Z,10.93
2022-10-11T00:25:08.395Z,9.48
2022-10-11T00:25:20.335Z,9.70
2022-10-11T00:25:32.331Z,9.50
2022-10-11T00:25:44.210Z,8.57
2022-10-11T00:26:01.172Z,9.60
2022-10-11T00:26:13.364Z,9.93
2022-10-11T00:26:25.260Z,11.15
2022-10-11T00:26:37.220Z,11.80
2022-10-11T00:26:49.095Z,13.50
2022-10-11T00:27:00.998Z,12.93
2022-10-11T00:27:12.883Z,10.82
2022-10-11T00:27:24.976Z,10.20
2022-10-11T00:27:37.333Z,9.40
2022-10-11T00:27:49.253Z,10.18
2022-10-11T00:28:01.127Z,10.80
2022-10-11T00:28:13.070Z,12.30
2022-10-11T00:28:25.053Z,12.55
2022-10-11T00:28:37.143Z,10.95
2022-10-11T00:28:52.018Z,11.23
2022-10-11T00:29:04.559Z,10.18
2022-10-11T00:29:16.552Z,10.68
2022-10-11T00:29:28.505Z,11.77
2022-10-11T00:29:40.417Z,11.45
2022-10-11T00:29:52.896Z,12.40
2022-10-11T00:30:06.523Z,10.73
2022-10-11T00:30:18.571Z,11.05
2022-10-11T00:30:31.552Z,11.75
2022-10-11T00:30:43.751Z,11.75
2022-10-11T00:30:55.808Z,13.00
2022-10-11T00:31:13.677Z,13.43
2022-10-11T00:31:25.649Z,12.38
2022-10-11T00:31:37.582Z,13.10
2022-10-11T00:31:49.470Z,12.90
2022-10-11T00:32:01.431Z,11.52
2022-10-11T00:32:13.368Z,10.50
2022-10-11T00:32:25.622Z,9.75
2022-10-11T00:32:38.393Z,11.43
2022-10-11T00:32:50.472Z,11.38
2022-10-11T00:33:02.733Z,10.95
2022-10-11T00:33:14.628Z,11.50
2022-10-11T00:33:26.521Z,11.77
2022-10-11T00:33:38.442Z,13.63
2022-10-11T00:33:50.349Z,13.90
2022-10-11T00:34:02.231Z,11.85
2022-10-11T00:34:15.563Z,9.77
2022-10-11T00:34:27.803Z,10.85
2022-10-11T00:34:39.706Z,11.23
2022-10-11T00:34:51.859Z,10.95
2022-10-11T00:35:06.351Z,11.02
2022-10-11T00:35:18.449Z,10.95
2022-10-11T00:35:30.359Z,9.85
2022-10-11T00:35:42.544Z,10.57
2022-10-11T00:35:54.457Z,13.30
2022-10-11T00:36:08.091Z,13.45
2022-10-11T00:36:21.344Z,13.55
2022-10-11T00:36:33.291Z,12.57
2022-10-11T00:36:45.748Z,11.30
2022-10-11T00:36:57.823Z,9.68
2022-10-11T00:37:09.720Z,9.75
2022-10-11T00:37:21.868Z,9.00
2022-10-11T00:37:35.863Z,11.55
2022-10-11T00:37:47.743Z,12.48
2022-10-11T00:37:59.629Z,11.77
2022-10-11T00:38:11.563Z,13.18
2022-10-11T00:38:23.449Z,14.65
2022-10-11T00:38:35.344Z,13.40
2022-10-11T00:38:47.285Z,13.10
2022-10-11T00:38:59.325Z,12.45
2022-10-11T00:39:13.766Z,11.27
2022-10-11T00:39:26.447Z,10.07
2022-10-11T00:39:38.359Z,13.00
2022-10-11T00:39:50.315Z,16.27
2022-10-11T00:40:03.800Z,16.75
2022-10-11T00:40:18.517Z,13.65
2022-10-11T00:40:30.423Z,12.13
2022-10-11T00:40:42.433Z,10.95
2022-10-11T00:40:54.431Z,11.23
2022-10-11T00:41:06.392Z,10.95
2022-10-11T00:41:18.665Z,9.82
2022-10-11T00:41:30.606Z,10.18
2022-10-11T00:41:42.860Z,13.52
2022-10-11T00:41:55.178Z,16.47
2022-10-11T00:42:13.109Z,18.75
2022-10-11T00:42:25.027Z,13.63
2022-10-11T00:42:36.921Z,11.23
2022-10-11T00:42:48.808Z,12.95
2022-10-11T00:43:01.401Z,13.32
2022-10-11T00:43:22.480Z,12.48
2022-10-11T00:43:34.911Z,12.18
2022-10-11T00:43:46.825Z,12.80
2022-10-11T00:44:20.069Z,13.65
2022-10-11T00:44:33.115Z,12.02
2022-10-11T00:44:49.288Z,10.25
2022-10-11T00:45:31.846Z,13.90
2022-10-11T00:46:02.906Z,13.23
2022-10-11T00:46:17.917Z,13.93
2022-10-11T00:46:32.029Z,14.23
2022-10-11T00:46:53.632Z,11.48
2022-10-11T00:47:12.402Z,12.25
2022-10-11T00:47:24.892Z,14.18
2022-10-11T00:47:36.793Z,13.80
2022-10-11T00:47:48.699Z,12.23
2022-10-11T00:48:04.060Z,11.85
2022-10-11T00:48:23.306Z,14.20
2022-10-11T00:48:48.808Z,14.98
2022-10-11T00:49:05.537Z,14.40
2022-10-11T00:49:42.026Z,13.95
2022-10-11T00:49:56.308Z,13.82
2022-10-11T00:50:11.313Z,14.68
2022-10-11T00:50:24.697Z,12.93
2022-10-11T00:50:37.311Z,13.90
2022-10-11T00:50:49.735Z,14.90
2022-10-11T00:51:04.791Z,16.07
2022-10-11T00:51:23.347Z,13.27
2022-10-11T00:51:57.851Z,11.68
2022-10-11T00:52:31.214Z,11.00
2022-10-11T00:52:47.096Z,12.18
2022-10-11T00:53:03.063Z,12.57
2022-10-11T00:53:15.411Z,13.30
2022-10-11T00:53:29.401Z,12.60
2022-10-11T00:53:42.089Z,13.10
2022-10-11T00:53:54.048Z,14.63
2022-10-11T00:54:07.575Z,14.90
2022-10-11T00:54:23.964Z,13.25
2022-10-11T00:54:41.721Z,15.30
2022-10-11T00:54:53.873Z,15.98
2022-10-11T00:55:14.200Z,15.88
2022-10-11T00:55:31.252Z,16.45
2022-10-11T00:55:58.808Z,15.50
2022-10-11T00:56:17.289Z,14.52
2022-10-11T00:56:38.944Z,14.80
2022-10-11T00:56:56.914Z,14.80
2022-10-11T00:57:13.956Z,15.60
2022-10-11T00:57:30.136Z,13.80
2022-10-11T00:57:45.967Z,13.55
2022-10-11T00:57:58.854Z,16.27
2022-10-11T00:58:12.536Z,15.93
2022-10-11T00:58:24.761Z,14.35
2022-10-11T00:58:38.125Z,14.52
2022-10-11T00:58:50.606Z,16.92
2022-10-11T00:59:06.375Z,16.02
2022-10-11T00:59:23.932Z,15.52
2022-10-11T00:59:40.295Z,15.07
2022-10-11T00:59:54.831Z,13.68
2022-10-11T01:00:10.576Z,14.88
2022-10-11T01:00:22.539Z,17.27
2022-10-11T01:00:34.571Z,16.05
2022-10-11T01:00:46.714Z,16.17
2022-10-11T01:00:58.673Z,12.27
2022-10-11T01:01:10.912Z,11.43
2022-10-11T01:01:22.874Z,12.02
2022-10-11T01:01:34.898Z,11.48
2022-10-11T01:01:46.982Z,12.07
2022-10-11T01:01:58.971Z,13.43
2022-10-11T01:02:12.673Z,13.88
2022-10-11T01:02:24.879Z,14.75
2022-10-11T01:02:37.114Z,14.75
2022-10-11T01:02:49.303Z,13.23
2022-10-11T01:03:02.967Z,14.20
2022-10-11T01:03:17.374Z,17.45
2022-10-11T01:03:31.403Z,17.27
2022-10-11T01:03:44.730Z,14.63
2022-10-11T01:03:57.364Z,15.63
2022-10-11T01:04:09.299Z,14.63
2022-10-11T01:04:21.627Z,13.18
2022-10-11T01:04:34.359Z,15.23
2022-10-11T01:04:46.547Z,16.40
2022-10-11T01:05:25.212Z,15.98
2022-10-11T01:05:31.397Z,18.85
2022-10-11T01:05:44.275Z,15.23
2022-10-11T01:05:56.328Z,14.82
2022-10-11T01:06:09.117Z,13.35
2022-10-11T01:06:21.147Z,14.73
2022-10-11T01:06:34.847Z,13.77
2022-10-11T01:06:47.397Z,15.18
2022-10-11T01:06:59.992Z,19.10
2022-10-11T01:07:12.407Z,17.55
2022-10-11T01:07:27.935Z,16.40
2022-10-11T01:07:41.470Z,15.82
2022-10-11T01:07:53.819Z,14.38
2022-10-11T01:08:07.118Z,16.45
2022-10-11T01:08:19.176Z,16.30
2022-10-11T01:08:31.728Z,18.10
2022-10-11T01:08:44.317Z,18.38
2022-10-11T01:08:56.465Z,16.48
2022-10-11T01:09:08.449Z,16.33
2022-10-11T01:09:21.245Z,13.88
2022-10-11T01:09:33.669Z,16.33
2022-10-11T01:09:45.749Z,17.58
2022-10-11T01:09:58.302Z,15.57
2022-10-11T01:10:10.459Z,14.45
2022-10-11T01:10:22.519Z,14.00
2022-10-11T01:10:34.936Z,15.60
2022-10-11T01:10:47.116Z,16.42
2022-10-11T01:10:59.630Z,16.65
2022-10-11T01:11:16.579Z,15.70
2022-10-11T01:11:30.797Z,15.38
2022-10-11T01:11:43.910Z,15.95
2022-10-11T01:12:01.030Z,16.30
2022-10-11T01:12:21.635Z,15.63
2022-10-11T01:12:34.015Z,13.77
2022-10-11T01:13:04.429Z,13.70
2022-10-11T01:13:25.172Z,14.18
2022-10-11T01:14:10.227Z,13.93
2022-10-11T01:14:30.973Z,14.40
2022-10-11T01:15:09.933Z,12.43
2022-10-11T01:15:44.867Z,13.32
2022-10-11T01:16:28.709Z,14.15
2022-10-11T01:17:08.194Z,16.15
2022-10-11T01:17:27.059Z,16.35
2022-10-11T01:18:09.085Z,15.70
2022-10-11T01:18:34.553Z,16.95
2022-10-11T01:19:14.937Z,13.98
2022-10-11T01:19:51.338Z,18.55
2022-10-11T01:20:21.833Z,14.38
2022-10-11T01:20:45.838Z,12.30
2022-10-11T01:21:36.714Z,14.27
2022-10-11T01:21:52.740Z,13.02
2022-10-11T01:22:26.216Z,14.75
2022-10-11T01:23:05.696Z,12.70
2022-10-11T01:23:32.368Z,11.70
2022-10-11T01:24:14.996Z,16.02
2022-10-11T01:24:29.566Z,13.93
2022-10-11T01:25:12.164Z,15.73
2022-10-11T01:25:42.462Z,15.88
2022-10-11T01:26:27.028Z,13.35
2022-10-11T01:27:11.303Z,18.35
2022-10-11T01:27:32.371Z,15.18
2022-10-11T01:27:46.990Z,15.05
2022-10-11T01:28:25.142Z,15.75
2022-10-11T01:28:39.725Z,13.85
2022-10-11T01:29:12.488Z,15.50
2022-10-11T01:29:42.330Z,14.52
2022-10-11T01:30:23.234Z,18.70
2022-10-11T01:30:37.032Z,11.52
2022-10-11T01:30:50.987Z,13.85
2022-10-11T01:31:19.851Z,14.75
2022-10-11T01:31:39.359Z,14.43
2022-10-11T01:31:58.542Z,15.00
2022-10-11T01:32:27.733Z,14.88
2022-10-11T01:32:39.578Z,14.73
2022-10-11T01:33:16.173Z,12.70
2022-10-11T01:33:41.317Z,13.10
2022-10-11T01:33:59.941Z,16.60
2022-10-11T01:34:18.900Z,16.40
2022-10-11T01:34:40.709Z,20.05
2022-10-11T01:34:52.571Z,17.35
2022-10-11T01:35:12.809Z,16.60
2022-10-11T01:36:09.127Z,14.77
2022-10-11T01:36:32.771Z,15.25
2022-10-11T01:36:55.071Z,14.13
2022-10-11T01:37:25.187Z,15.30
2022-10-11T01:37:42.642Z,14.43
2022-10-11T01:38:04.158Z,16.92
2022-10-11T01:38:32.891Z,14.15
2022-10-11T01:38:53.196Z,15.55
2022-10-11T01:39:09.741Z,15.05
2022-10-11T01:39:31.554Z,14.98
2022-10-11T01:39:51.704Z,12.02
2022-10-11T01:40:27.326Z,13.95
2022-10-11T01:40:49.262Z,14.32
2022-10-11T01:41:12.180Z,16.05
2022-10-11T01:41:28.039Z,16.77
2022-10-11T01:41:51.287Z,15.15
2022-10-11T01:42:06.277Z,18.05
2022-10-11T01:42:19.763Z,16.40
2022-10-11T01:42:31.828Z,12.90
2022-10-11T01:42:44.235Z,13.02
2022-10-11T01:42:57.613Z,16.70
2022-10-11T01:43:10.245Z,18.25
2022-10-11T01:43:24.319Z,16.45
2022-10-11T01:43:38.741Z,14.85
2022-10-11T01:43:56.166Z,14.75
2022-10-11T01:44:09.172Z,15.82
2022-10-11T01:44:23.978Z,15.15
2022-10-11T01:44:38.231Z,15.32
2022-10-11T01:44:51.255Z,15.98
2022-10-11T01:45:04.972Z,17.67
2022-10-11T01:45:18.772Z,17.60
2022-10-11T01:45:32.730Z,17.50
2022-10-11T01:45:47.784Z,15.77
2022-10-11T01:46:00.409Z,11.38
2022-10-11T01:46:13.485Z,12.77
2022-10-11T01:46:28.112Z,13.75
2022-10-11T01:46:40.838Z,14.43
2022-10-11T01:46:53.770Z,14.70
2022-10-11T01:47:05.800Z,14.20
2022-10-11T01:47:22.917Z,14.93
2022-10-11T01:47:35.188Z,14.05
2022-10-11T01:47:47.546Z,13.63
2022-10-11T01:48:05.246Z,15.15
2022-10-11T01:48:17.553Z,16.20
2022-10-11T01:48:29.456Z,16.65
2022-10-11T01:48:52.590Z,16.60
2022-10-11T01:49:05.092Z,14.55
2022-10-11T01:49:17.044Z,12.93
2022-10-11T01:49:28.925Z,11.38
2022-10-11T01:49:41.870Z,10.55
2022-10-11T01:49:58.818Z,10.68
2022-10-11T01:50:35.200Z,11.75
2022-10-11T01:50:50.955Z,11.25
2022-10-11T01:51:04.026Z,11.13
2022-10-11T01:51:16.303Z,13.52
2022-10-11T01:51:48.190Z,16.08
2022-10-11T01:52:06.258Z,15.43
2022-10-11T01:52:18.136Z,18.20
2022-10-11T01:52:33.858Z,15.27
2022-10-11T01:52:46.632Z,13.77
2022-10-11T01:53:21.196Z,17.30
2022-10-11T01:53:35.847Z,18.13
2022-10-11T01:54:10.990Z,16.00
2022-10-11T01:55:15.607Z,18.48
2022-10-11T01:55:41.120Z,18.23
2022-10-11T01:56:21.398Z,19.00
2022-10-11T01:57:11.795Z,17.98
2022-10-11T01:57:44.790Z,15.75
2022-10-11T01:58:29.108Z,19.58
2022-10-11T01:59:13.459Z,14.27
2022-10-11T01:59:46.969Z,16.13
2022-10-11T02:00:15.270Z,16.30
2022-10-11T02:00:33.977Z,17.13
2022-10-11T02:00:58.012Z,14.98
2022-10-11T02:01:19.011Z,14.95
2022-10-11T02:01:39.762Z,15.75
2022-10-11T02:02:18.250Z,12.10
2022-10-11T02:02:45.036Z,17.85
2022-10-11T02:03:22.940Z,15.45
2022-10-11T02:04:02.817Z,14.05
2022-10-11T02:04:25.917Z,17.08
2022-10-11T02:04:48.637Z,15.32
2022-10-11T02:05:16.511Z,17.35
2022-10-11T02:05:53.154Z,13.55
2022-10-11T02:06:26.541Z,17.90
2022-10-11T02:06:50.709Z,16.27
2022-10-11T02:07:17.226Z,15.93
2022-10-11T02:08:17.131Z,17.95
2022-10-11T02:08:50.885Z,15.80
2022-10-11T02:09:20.904Z,14.98
2022-10-11T02:09:38.241Z,14.25
2022-10-11T02:10:03.327Z,16.38
2022-10-11T02:10:30.539Z,17.65
2022-10-11T02:10:55.897Z,18.02
2022-10-11T02:11:21.109Z,16.45
2022-10-11T02:11:34.657Z,13.75
2022-10-11T02:11:46.790Z,14.43
2022-10-11T02:12:05.152Z,16.63
2022-10-11T02:12:25.308Z,17.45
2022-10-11T02:12:42.913Z,14.43
2022-10-11T02:13:17.709Z,13.70
2022-10-11T02:13:35.566Z,14.73
2022-10-11T02:14:08.802Z,17.13
2022-10-11T02:14:24.767Z,17.58
2022-10-11T02:14:41.773Z,14.57
2022-10-11T02:14:56.610Z,14.70
2022-10-11T02:15:12.505Z,14.55
2022-10-11T02:15:28.068Z,14.45
2022-10-11T02:15:41.891Z,16.42
2022-10-11T02:15:57.249Z,17.60
2022-10-11T02:16:16.364Z,16.60
2022-10-11T02:17:07.722Z,15.70
2022-10-11T02:17:25.235Z,15.18
2022-10-11T02:17:43.286Z,16.52
2022-10-11T02:17:58.940Z,17.15
2022-10-11T02:18:16.404Z,16.00
2022-10-11T02:18:36.064Z,14.30
2022-10-11T02:18:52.203Z,16.02
2022-10-11T02:19:07.048Z,20.55
2022-10-11T02:19:23.041Z,19.15
2022-10-11T02:19:40.801Z,15.32
2022-10-11T02:19:56.617Z,16.33
2022-10-11T02:20:14.353Z,18.02
2022-10-11T02:20:28.534Z,18.42
2022-10-11T02:20:42.872Z,18.30
2022-10-11T02:20:57.234Z,17.33
2022-10-11T02:21:13.224Z,14.45
2022-10-11T02:21:27.500Z,13.98
2022-10-11T02:21:43.801Z,13.25
2022-10-11T02:22:01.392Z,13.02
2022-10-11T02:22:40.031Z,13.68
2022-10-11T02:23:00.399Z,20.45
2022-10-11T02:23:17.456Z,19.15
2022-10-11T02:23:36.885Z,17.52
2022-10-11T02:24:00.037Z,13.77
2022-10-11T02:24:21.555Z,14.38
2022-10-11T02:24:36.092Z,16.20
2022-10-11T02:24:52.663Z,14.88
2022-10-11T02:25:10.482Z,14.17
2022-10-11T02:25:27.238Z,16.05
2022-10-11T02:25:39.511Z,15.02
2022-10-11T02:25:52.487Z,15.65
2022-10-11T02:26:07.273Z,16.00
2022-10-11T02:26:21.914Z,18.38
2022-10-11T02:26:36.337Z,21.65
2022-10-11T02:26:54.084Z,17.42
2022-10-11T02:27:07.696Z,13.45
2022-10-11T02:27:23.008Z,14.48
2022-10-11T02:27:38.592Z,17.00
2022-10-11T02:27:54.592Z,19.52
2022-10-11T02:28:12.269Z,17.52
2022-10-11T02:28:29.668Z,14.57
2022-10-11T02:28:43.933Z,16.88
2022-10-11T02:29:00.308Z,16.17
2022-10-11T02:29:15.609Z,17.60
2022-10-11T02:29:30.728Z,16.50
2022-10-11T02:29:45.210Z,15.80
2022-10-11T02:30:01.548Z,18.02
2022-10-11T02:30:15.330Z,15.48
2022-10-11T02:30:29.021Z,18.02
2022-10-11T02:30:43.949Z,18.55
2022-10-11T02:30:57.917Z,16.27
2022-10-11T02:31:11.851Z,14.73
2022-10-11T02:31:25.401Z,14.50
2022-10-11T02:31:39.714Z,15.65
2022-10-11T02:31:52.751Z,15.10
2022-10-11T02:32:06.754Z,13.65
2022-10-11T02:32:21.847Z,13.85
2022-10-11T02:32:36.932Z,16.08
2022-10-11T02:32:51.390Z,19.30
2022-10-11T02:33:07.607Z,17.05
2022-10-11T02:33:26.944Z,12.45
2022-10-11T02:33:44.856Z,13.45
2022-10-11T02:34:00.300Z,14.13
2022-10-11T02:34:18.534Z,16.17
2022-10-11T02:34:35.264Z,15.50
2022-10-11T02:34:52.099Z,15.55
2022-10-11T02:35:04.485Z,13.73
2022-10-11T02:35:17.314Z,11.95
2022-10-11T02:35:32.292Z,12.70
2022-10-11T02:35:50.167Z,13.70
2022-10-11T02:36:08.622Z,13.23
2022-10-11T02:36:32.918Z,14.52
2022-10-11T02:36:47.816Z,18.15
2022-10-11T02:37:05.446Z,15.18
2022-10-11T02:37:34.447Z,14.00
2022-10-11T02:37:51.981Z,14.85
2022-10-11T02:38:26.134Z,12.93
2022-10-11T02:38:44.126Z,16.90
2022-10-11T02:39:03.297Z,13.50
2022-10-11T02:39:23.483Z,13.98
2022-10-11T02:39:35.301Z,15.90
2022-10-11T02:39:58.182Z,17.23
2022-10-11T02:40:30.914Z,14.60
2022-10-11T02:40:46.174Z,16.27
2022-10-11T02:41:02.597Z,16.33
2022-10-11T02:41:26.410Z,14.32
2022-10-11T02:41:40.640Z,15.65
2022-10-11T02:41:56.324Z,15.00
2022-10-11T02:42:14.814Z,14.60
2022-10-11T02:42:42.944Z,16.60
2022-10-11T02:43:03.398Z,16.52
2022-10-11T02:43:24.066Z,17.52
2022-10-11T02:43:43.445Z,13.55
2022-10-11T02:44:00.428Z,15.18
2022-10-11T02:44:35.324Z,16.67
2022-10-11T02:44:59.580Z,15.20
2022-10-11T02:45:27.897Z,13.63
2022-10-11T02:45:44.615Z,13.50
2022-10-11T02:46:00.185Z,16.02
2022-10-11T02:46:13.412Z,16.80
2022-10-11T02:46:30.398Z,15.45
2022-10-11T02:46:44.236Z,14.27
2022-10-11T02:46:56.227Z,13.55
2022-10-11T02:47:09.065Z,14.60
2022-10-11T02:47:21.319Z,14.90
2022-10-11T02:47:33.851Z,15.30
2022-10-11T02:47:46.880Z,14.38
2022-10-11T02:47:58.961Z,14.40
2022-10-11T02:48:12.527Z,14.38
2022-10-11T02:48:25.189Z,14.55
2022-10-11T02:48:37.524Z,17.27
2022-10-11T02:48:50.293Z,18.42
2022-10-11T02:49:02.858Z,18.08
2022-10-11T02:49:16.485Z,17.73
2022-10-11T02:49:29.767Z,15.57
2022-10-11T02:49:41.843Z,17.05
2022-10-11T02:49:54.271Z,14.45
2022-10-11T02:50:06.681Z,11.63
2022-10-11T02:50:18.720Z,9.10
2022-10-11T02:50:30.724Z,11.23
2022-10-11T02:50:43.430Z,14.82
2022-10-11T02:50:57.181Z,16.17
2022-10-11T02:51:13.690Z,14.68
2022-10-11T02:51:29.495Z,14.93
2022-10-11T02:51:41.716Z,13.32
2022-10-11T02:51:56.112Z,12.43
2022-10-11T02:52:08.041Z,12.98
2022-10-11T02:52:19.933Z,13.88
2022-10-11T02:52:31.822Z,14.73
2022-10-11T02:52:43.824Z,15.15
2022-10-11T02:52:55.717Z,15.15
2022-10-11T02:53:08.369Z,18.15
2022-10-11T02:53:21.131Z,18.67
2022-10-11T02:53:33.570Z,21.40
2022-10-11T02:53:45.577Z,18.20
2022-10-11T02:53:57.722Z,15.07
2022-10-11T02:54:09.671Z,16.70
2022-10-11T02:54:21.815Z,17.30
2022-10-11T02:54:34.077Z,16.40
2022-10-11T02:54:46.065Z,16.17
2022-10-11T02:54:58.000Z,16.35
2022-10-11T02:55:10.971Z,15.32
2022-10-11T02:55:22.959Z,15.63
2022-10-11T02:55:35.039Z,14.52
2022-10-11T02:55:49.339Z,14.90
2022-10-11T02:56:01.367Z,14.35
2022-10-11T02:56:13.431Z,14.35
2022-10-11T02:56:25.499Z,15.00
2022-10-11T02:56:37.393Z,15.98
2022-10-11T02:56:49.338Z,16.75
2022-10-11T02:57:01.267Z,15.00
2022-10-11T02:57:13.208Z,14.85
2022-10-11T02:57:25.129Z,14.95
2022-10-11T02:57:37.005Z,13.02
2022-10-11T02:57:48.993Z,12.73
2022-10-11T02:58:01.196Z,14.95
2022-10-11T02:58:13.068Z,16.13
2022-10-11T02:58:25.370Z,13.80
2022-10-11T02:58:37.273Z,13.48
2022-10-11T02:58:49.571Z,13.00
2022-10-11T02:59:01.471Z,12.98
2022-10-11T02:59:13.399Z,12.60
2022-10-11T02:59:25.299Z,12.57
2022-10-11T02:59:37.339Z,13.80
2022-10-11T02:59:49.272Z,14.10
2022-10-11T03:00:01.272Z,14.82
2022-10-11T03:00:13.896Z,13.10
2022-10-11T03:00:25.885Z,12.98
2022-10-11T03:00:37.761Z,14.63
2022-10-11T03:00:50.251Z,16.45
2022-10-11T03:01:02.135Z,15.70
2022-10-11T03:01:14.384Z,15.05
2022-10-11T03:01:26.406Z,16.55
2022-10-11T03:01:38.352Z,16.88
2022-10-11T03:01:50.298Z,14.73
2022-10-11T03:02:02.257Z,15.57
2022-10-11T03:02:14.241Z,16.08
2022-10-11T03:02:26.149Z,16.35
2022-10-11T03:02:38.080Z,13.70
2022-10-11T03:02:50.043Z,13.52
2022-10-11T03:03:01.917Z,16.02
2022-10-11T03:03:13.878Z,17.23
2022-10-11T03:03:25.779Z,14.80
2022-10-11T03:03:37.786Z,14.10
2022-10-11T03:03:49.740Z,14.38
2022-10-11T03:04:01.641Z,16.42
2022-10-11T03:04:13.547Z,16.85
2022-10-11T03:04:25.505Z,17.58
2022-10-11T03:04:37.442Z,14.50
2022-10-11T03:04:49.357Z,14.13
2022-10-11T03:05:01.376Z,15.65
2022-10-11T03:05:13.271Z,16.02
2022-10-11T03:05:25.249Z,15.38
2022-10-11T03:05:40.600Z,14.23
2022-10-11T03:05:58.453Z,13.35
2022-10-11T03:06:10.341Z,15.38
2022-10-11T03:06:22.243Z,15.52
2022-10-11T03:06:34.401Z,14.45
2022-10-11T03:06:46.308Z,15.07
2022-10-11T03:06:58.243Z,15.18
2022-10-11T03:07:10.150Z,14.90
2022-10-11T03:07:22.051Z,17.17
2022-10-11T03:07:33.989Z,17.50
2022-10-11T03:07:45.875Z,19.05
2022-10-11T03:07:57.802Z,16.35
2022-10-11T03:08:12.389Z,15.25
2022-10-11T03:08:24.333Z,15.50
2022-10-11T03:08:36.280Z,14.45
2022-10-11T03:08:48.180Z,15.38
2022-10-11T03:09:00.111Z,16.77
2022-10-11T03:09:12.026Z,18.13
2022-10-11T03:09:24.032Z,16.17
2022-10-11T03:09:35.960Z,15.60
2022-10-11T03:09:47.872Z,14.80
2022-10-11T03:09:59.794Z,12.70
2022-10-11T03:10:11.715Z,14.40
2022-10-11T03:10:23.604Z,16.98
2022-10-11T03:10:35.891Z,18.63
2022-10-11T03:10:48.231Z,16.48
2022-10-11T03:11:00.197Z,16.27
2022-10-11T03:11:12.096Z,16.00
2022-10-11T03:11:24.046Z,13.18
2022-10-11T03:11:36.060Z,14.57
2022-10-11T03:11:48.461Z,15.48
2022-10-11T03:12:00.417Z,14.68
2022-10-11T03:12:12.305Z,16.40
2022-10-11T03:12:24.347Z,15.85
2022-10-11T03:12:36.258Z,15.25
2022-10-11T03:12:48.605Z,14.82
2022-10-11T03:13:00.790Z,15.07
2022-10-11T03:13:17.292Z,14.82
2022-10-11T03:13:30.116Z,14.20
2022-10-11T03:13:41.974Z,13.10
2022-10-11T03:13:53.858Z,14.90
2022-10-11T03:14:05.739Z,17.88
2022-10-11T03:14:17.635Z,18.98
2022-10-11T03:14:29.627Z,16.42
2022-10-11T03:14:52.628Z,14.93
2022-10-11T03:15:05.943Z,15.90
2022-10-11T03:15:17.863Z,13.57
2022-10-11T03:15:30.008Z,14.45
2022-10-11T03:15:41.867Z,13.98
2022-10-11T03:16:03.616Z,12.40
2022-10-11T03:16:15.644Z,14.60
2022-10-11T03:16:30.258Z,15.68
2022-10-11T03:16:42.180Z,13.48
2022-10-11T03:16:55.785Z,14.25
2022-10-11T03:17:35.115Z,16.27
2022-10-11T03:17:47.579Z,14.43
2022-10-11T03:18:03.727Z,15.95
2022-10-11T03:18:15.920Z,16.23
2022-10-11T03:18:27.892Z,15.32
2022-10-11T03:18:39.813Z,13.90
2022-10-11T03:18:51.731Z,14.50
2022-10-11T03:19:04.075Z,14.35
2022-10-11T03:19:20.105Z,13.70
2022-10-11T03:19:33.571Z,11.33
2022-10-11T03:19:45.539Z,11.63
2022-10-11T03:19:57.518Z,12.90
2022-10-11T03:20:11.855Z,13.20
2022-10-11T03:20:24.605Z,14.20
2022-10-11T03:20:36.541Z,16.45
2022-10-11T03:20:48.428Z,16.92
2022-10-11T03:21:00.349Z,16.65
2022-10-11T03:21:12.263Z,17.55
2022-10-11T03:21:25.136Z,17.95
2022-10-11T03:21:37.162Z,15.50
2022-10-11T03:21:51.114Z,14.57
2022-10-11T03:22:03.020Z,14.13
2022-10-11T03:22:17.506Z,14.18
2022-10-11T03:22:29.397Z,14.98
2022-10-11T03:22:41.286Z,16.70
2022-10-11T03:22:53.201Z,16.08
2022-10-11T03:23:06.963Z,16.70
2022-10-11T03:23:20.786Z,16.10
2022-10-11T03:23:32.817Z,17.83
2022-10-11T03:23:44.707Z,19.15
2022-10-11T03:23:56.570Z,18.38
2022-10-11T03:24:09.788Z,16.42
2022-10-11T03:24:21.781Z,14.48
2022-10-11T03:24:33.640Z,16.08
2022-10-11T03:24:48.082Z,16.40
2022-10-11T03:25:04.135Z,17.02
2022-10-11T03:25:17.272Z,17.60
2022-10-11T03:25:29.182Z,15.73
2022-10-11T03:25:43.666Z,13.10
2022-10-11T03:25:55.753Z,12.75
2022-10-11T03:26:08.647Z,13.50
2022-10-11T03:26:21.020Z,17.52
2022-10-11T03:26:35.917Z,19.08
2022-10-11T03:26:48.237Z,14.93
2022-10-11T03:27:00.141Z,15.77
2022-10-11T03:27:12.183Z,15.13
2022-10-11T03:27:24.101Z,14.90
2022-10-11T03:27:36.118Z,15.43
2022-10-11T03:27:48.043Z,16.08